createdAt,value
2017-11-06T00:00:32.635Z,21.91
2017-11-06T00:02:40.181Z,21.85
2017-11-06T00:04:46.776Z,21.80
2017-11-06T00:06:53.558Z,21.78
2017-11-06T00:09:01.620Z,21.96
2017-11-06T00:11:09.871Z,22.02
2017-11-06T00:13:15.963Z,22.01
2017-11-06T00:15:26.891Z,21.64
2017-11-06T00:17:32.933Z,21.96
2017-11-06T00:19:38.595Z,22.01
2017-11-06T00:21:45.178Z,21.48
2017-11-06T00:23:51.264Z,21.34
2017-11-06T00:25:58.398Z,21.58
2017-11-06T00:28:04.047Z,21.86
2017-11-06T00:30:10.462Z,22.03
2017-11-06T00:32:15.983Z,21.90
2017-11-06T00:34:22.332Z,21.84
2017-11-06T00:36:28.827Z,21.85
2017-11-06T00:38:35.090Z,21.96
2017-11-06T00:40:40.981Z,21.71
2017-11-06T00:42:48.035Z,21.63
2017-11-06T00:44:55.777Z,21.66
2017-11-06T00:47:03.739Z,21.38
2017-11-06T00:49:14.522Z,21.34
2017-11-06T00:51:20.290Z,21.64
2017-11-06T00:53:27.064Z,21.81
2017-11-06T00:55:33.116Z,21.44
2017-11-06T00:57:39.677Z,21.31
2017-11-06T00:59:45.299Z,21.36
2017-11-06T01:01:51.704Z,21.38
2017-11-06T01:03:58.354Z,21.17
2017-11-06T01:06:03.810Z,21.31
2017-11-06T01:08:12.452Z,21.15
2017-11-06T01:10:18.759Z,21.30
2017-11-06T01:12:24.468Z,21.25
2017-11-06T01:14:30.594Z,21.37
2017-11-06T01:16:37.163Z,21.25
2017-11-06T01:18:42.866Z,21.26
2017-11-06T01:20:49.181Z,20.91
2017-11-06T01:22:55.877Z,21.31
2017-11-06T01:25:02.813Z,21.19
2017-11-06T01:27:10.766Z,21.21
2017-11-06T01:29:16.996Z,21.28
2017-11-06T01:31:22.943Z,21.30
2017-11-06T01:33:29.048Z,21.53
2017-11-06T01:35:34.557Z,21.27
2017-11-06T01:37:40.216Z,21.18
2017-11-06T01:39:46.865Z,21.32
2017-11-06T01:41:53.037Z,21.47
2017-11-06T01:43:59.100Z,21.44
2017-11-06T01:46:09.442Z,21.11
2017-11-06T01:48:15.664Z,21.13
2017-11-06T01:50:21.506Z,21.11
2017-11-06T01:52:28.671Z,21.19
2017-11-06T01:54:35.494Z,21.60
2017-11-06T01:56:42.038Z,21.24
2017-11-06T01:58:48.644Z,21.13
2017-11-06T02:00:57.880Z,21.59
2017-11-06T02:03:05.697Z,21.36
2017-11-06T02:05:11.686Z,21.47
2017-11-06T02:07:17.734Z,21.74
2017-11-06T02:09:23.558Z,21.07
2017-11-06T02:11:29.316Z,21.60
2017-11-06T02:13:35.330Z,21.52
2017-11-06T02:15:41.329Z,21.80
2017-11-06T02:17:46.947Z,21.57
2017-11-06T02:19:54.808Z,21.46
2017-11-06T02:22:03.985Z,21.27
2017-11-06T02:24:09.904Z,21.41
2017-11-06T03:09:32.306Z,21.07
2017-11-06T03:11:48.936Z,20.83
2017-11-06T03:13:55.646Z,21.19
2017-11-06T03:16:01.243Z,20.97
2017-11-06T03:18:07.248Z,20.84
2017-11-06T03:20:14.152Z,20.97
2017-11-06T03:22:20.461Z,20.82
2017-11-06T03:24:26.074Z,20.72
2017-11-06T03:26:31.684Z,20.64
2017-11-06T03:28:44.698Z,20.87
2017-11-06T03:30:51.239Z,21.21
2017-11-06T03:32:58.018Z,21.04
2017-11-06T03:35:03.503Z,21.01
2017-11-06T03:37:09.046Z,20.76
2017-11-06T03:39:14.833Z,20.84
2017-11-06T03:41:20.287Z,20.89
2017-11-06T03:43:26.035Z,20.84
2017-11-06T03:45:32.294Z,20.80
2017-11-06T03:47:38.107Z,20.86
2017-11-06T03:49:43.530Z,20.88
2017-11-06T03:51:49.570Z,20.61
2017-11-06T03:53:55.936Z,20.59
2017-11-06T03:56:02.849Z,20.88
2017-11-06T03:58:11.101Z,20.91
2017-11-06T04:00:16.946Z,20.64
2017-11-06T04:02:24.351Z,20.88
2017-11-06T04:04:30.118Z,20.95
2017-11-06T04:06:35.636Z,20.96
2017-11-06T04:08:41.211Z,20.59
2017-11-06T04:10:46.864Z,20.68
2017-11-06T04:12:53.810Z,20.79
2017-11-06T04:15:00.116Z,20.78
2017-11-06T04:17:08.108Z,20.83
2017-11-06T04:19:14.055Z,20.68
2017-11-06T04:21:19.607Z,20.64
2017-11-06T04:23:27.213Z,20.97
2017-11-06T04:25:33.653Z,20.75
2017-11-06T04:27:39.292Z,20.91
2017-11-06T04:29:45.093Z,20.92
2017-11-06T04:31:52.922Z,21.23
2017-11-06T04:33:58.964Z,20.85
2017-11-06T04:36:07.267Z,20.93
2017-11-06T04:38:14.152Z,20.70
2017-11-06T04:40:19.790Z,20.72
2017-11-06T04:42:27.103Z,21.10
2017-11-06T04:44:32.728Z,20.71
2017-11-06T04:46:38.222Z,20.86
2017-11-06T04:48:43.682Z,21.03
2017-11-06T04:50:51.929Z,20.65
2017-11-06T04:53:02.876Z,21.08
2017-11-06T04:55:12.999Z,21.20
2017-11-06T04:57:18.839Z,20.74
2017-11-06T04:59:25.057Z,20.95
2017-11-06T05:01:30.787Z,20.77
2017-11-06T05:03:37.385Z,20.60
2017-11-06T05:05:43.488Z,20.80
2017-11-06T05:07:49.272Z,20.88
2017-11-06T05:09:57.025Z,20.99
2017-11-06T05:12:07.788Z,20.45
2017-11-06T05:14:13.275Z,20.65
2017-11-06T05:16:19.924Z,20.79
2017-11-06T05:18:27.441Z,21.12
2017-11-06T05:20:36.141Z,20.98
2017-11-06T05:22:42.579Z,21.21
2017-11-06T05:24:48.494Z,21.05
2017-11-06T05:26:54.179Z,21.07
2017-11-06T05:29:03.030Z,21.12
2017-11-06T05:31:12.156Z,20.82
2017-11-06T05:33:26.469Z,20.97
2017-11-06T05:35:33.996Z,20.90
2017-11-06T05:37:51.005Z,20.82
2017-11-06T05:40:09.197Z,20.68
2017-11-06T05:42:23.026Z,20.54
2017-11-06T05:44:39.245Z,20.68
2017-11-06T05:46:54.640Z,20.89
2017-11-06T05:49:07.116Z,20.91
2017-11-06T05:51:16.346Z,20.94
2017-11-06T05:53:25.274Z,20.88
2017-11-06T05:55:36.478Z,20.93
2017-11-06T05:57:43.186Z,20.93
2017-11-06T06:02:05.700Z,21.07
2017-11-06T06:04:13.378Z,21.23
2017-11-06T06:06:28.540Z,21.09
2017-11-06T06:08:35.006Z,20.91
2017-11-06T06:10:42.785Z,21.06
2017-11-06T06:12:50.131Z,21.03
2017-11-06T06:14:57.888Z,21.16
2017-11-06T06:17:11.002Z,21.02
2017-11-06T06:19:18.954Z,21.00
2017-11-06T06:21:26.161Z,21.22
2017-11-06T06:23:37.048Z,21.11
2017-11-06T06:25:43.751Z,21.16
2017-11-06T06:27:52.351Z,21.08
2017-11-06T06:29:59.838Z,21.30
2017-11-06T06:32:07.845Z,21.23
2017-11-06T06:34:15.157Z,21.21
2017-11-06T06:36:21.182Z,21.21
2017-11-06T06:38:28.815Z,21.13
2017-11-06T06:40:37.120Z,21.30
2017-11-06T06:42:47.120Z,21.06
2017-11-06T06:44:55.829Z,20.98
2017-11-06T06:47:10.367Z,21.47
2017-11-06T06:49:16.266Z,21.58
2017-11-06T06:51:25.197Z,22.43
2017-11-06T06:53:36.467Z,22.83
2017-11-06T06:55:42.698Z,22.97
2017-11-06T06:57:54.065Z,23.01
2017-11-06T07:00:09.264Z,23.09
2017-11-06T07:02:15.099Z,23.16
2017-11-06T07:04:22.263Z,23.15
2017-11-06T07:06:30.458Z,23.23
2017-11-06T07:08:37.647Z,23.24
2017-11-06T07:10:46.511Z,23.42
2017-11-06T07:12:55.012Z,23.41
2017-11-06T07:15:14.668Z,23.43
2017-11-06T07:17:24.837Z,23.45
2017-11-06T07:19:30.553Z,23.40
2017-11-06T07:21:40.174Z,23.44
2017-11-06T07:23:47.202Z,23.43
2017-11-06T07:25:58.170Z,23.49
2017-11-06T07:28:10.090Z,23.49
2017-11-06T07:30:18.387Z,23.52
2017-11-06T07:32:29.648Z,23.47
2017-11-06T07:34:50.264Z,23.47
2017-11-06T07:36:58.227Z,23.50
2017-11-06T07:39:07.735Z,23.52
2017-11-06T07:41:14.500Z,23.48
2017-11-06T07:43:21.264Z,23.45
2017-11-06T07:45:26.957Z,23.43
2017-11-06T07:47:32.670Z,23.40
2017-11-06T07:49:39.208Z,23.41
2017-11-06T07:51:44.875Z,23.40
2017-11-06T07:53:52.155Z,23.44
2017-11-06T07:56:04.582Z,23.43
2017-11-06T07:58:11.415Z,23.46
2017-11-06T08:00:16.947Z,23.53
2017-11-06T08:02:22.839Z,23.45
2017-11-06T08:04:28.686Z,23.42
2017-11-06T08:06:34.634Z,23.44
2017-11-06T08:08:40.287Z,23.43
2017-11-06T08:10:46.276Z,23.42
2017-11-06T08:12:52.485Z,23.43
2017-11-06T08:14:58.968Z,23.43
2017-11-06T08:17:07.340Z,23.59
2017-11-06T08:19:14.179Z,23.66
2017-11-06T08:21:20.829Z,23.64
2017-11-06T08:23:27.668Z,23.59
2017-11-06T08:25:35.400Z,23.87
2017-11-06T08:27:42.706Z,23.83
2017-11-06T08:29:50.477Z,23.84
2017-11-06T08:31:57.503Z,23.76
2017-11-06T08:34:06.790Z,23.74
2017-11-06T08:38:29.606Z,23.81
2017-11-06T08:40:35.342Z,23.79
2017-11-06T08:42:41.343Z,23.75
2017-11-06T08:44:47.346Z,23.74
2017-11-06T08:46:55.954Z,23.70
2017-11-06T08:49:03.631Z,23.66
2017-11-06T08:51:09.890Z,23.76
2017-11-06T08:53:16.832Z,23.83
2017-11-06T08:55:23.304Z,23.78
2017-11-06T08:57:29.029Z,23.72
2017-11-06T08:59:36.359Z,23.72
2017-11-06T09:01:42.501Z,23.72
2017-11-06T09:03:50.156Z,23.77
2017-11-06T09:05:57.032Z,23.72
2017-11-06T09:08:09.119Z,23.72
2017-11-06T09:10:17.633Z,23.72
2017-11-06T09:12:30.762Z,23.76
2017-11-06T09:14:37.331Z,23.77
2017-11-06T09:16:45.852Z,23.74
2017-11-06T09:18:55.414Z,23.75
2017-11-06T09:21:06.429Z,23.78
2017-11-06T09:23:12.648Z,23.79
2017-11-06T09:25:18.563Z,23.82
2017-11-06T09:27:24.561Z,23.89
2017-11-06T09:29:31.323Z,23.92
2017-11-06T09:31:38.611Z,23.96
2017-11-06T09:33:44.518Z,23.93
2017-11-06T09:35:52.453Z,23.94
2017-11-06T09:37:58.932Z,23.97
2017-11-06T09:40:10.149Z,23.94
2017-11-06T09:42:15.993Z,23.97
2017-11-06T09:44:22.043Z,24.05
2017-11-06T09:46:29.790Z,24.01
2017-11-06T09:48:37.808Z,24.00
2017-11-06T09:50:44.302Z,24.01
2017-11-06T09:52:50.501Z,24.04
2017-11-06T09:54:56.796Z,24.00
2017-11-06T09:57:07.680Z,24.09
2017-11-06T09:59:15.683Z,24.05
2017-11-06T10:01:22.594Z,24.06
2017-11-06T10:03:29.971Z,24.20
2017-11-06T10:05:36.021Z,24.11
2017-11-06T10:07:42.206Z,24.17
2017-11-06T10:09:52.696Z,24.13
2017-11-06T10:12:00.018Z,24.11
2017-11-06T10:14:11.618Z,24.11
2017-11-06T10:16:17.869Z,24.07
2017-11-06T10:18:24.163Z,24.08
2017-11-06T10:20:30.139Z,24.08
2017-11-06T10:22:35.933Z,24.03
2017-11-06T10:24:41.500Z,23.98
2017-11-06T10:26:47.828Z,23.98
2017-11-06T10:28:55.204Z,24.00
2017-11-06T10:31:03.563Z,23.98
2017-11-06T10:33:10.399Z,23.97
2017-11-06T10:35:16.909Z,24.05
2017-11-06T10:37:23.242Z,24.15
2017-11-06T10:39:29.833Z,24.15
2017-11-06T10:41:35.926Z,24.19
2017-11-06T10:43:41.987Z,24.19
2017-11-06T10:45:51.258Z,24.20
2017-11-06T10:47:58.006Z,24.23
2017-11-06T10:50:04.859Z,24.20
2017-11-06T10:52:10.939Z,24.23
2017-11-06T10:54:20.688Z,24.23
2017-11-06T10:56:29.184Z,24.23
2017-11-06T10:58:37.212Z,24.27
2017-11-06T11:00:43.315Z,24.26
2017-11-06T11:02:50.496Z,24.24
2017-11-06T11:04:59.171Z,24.20
2017-11-06T11:07:10.082Z,24.24
2017-11-06T11:09:16.921Z,24.26
2017-11-06T11:11:23.335Z,24.20
2017-11-06T11:13:32.259Z,24.22
2017-11-06T11:15:38.274Z,24.18
2017-11-06T11:17:44.069Z,24.27
2017-11-06T11:19:50.701Z,24.35
2017-11-06T11:21:57.253Z,24.28
2017-11-06T11:24:07.118Z,24.24
2017-11-06T11:26:12.896Z,24.20
2017-11-06T11:28:18.979Z,24.22
2017-11-06T11:30:25.139Z,24.23
2017-11-06T11:32:31.771Z,24.24
2017-11-06T11:34:38.660Z,24.20
2017-11-06T11:36:44.821Z,24.13
2017-11-06T11:38:51.616Z,24.09
2017-11-06T11:41:01.909Z,24.08
2017-11-06T11:43:09.814Z,24.05
2017-11-06T11:45:17.990Z,24.05
2017-11-06T11:47:23.670Z,24.06
2017-11-06T11:49:30.344Z,24.06
2017-11-06T11:51:36.022Z,24.07
2017-11-06T11:53:42.111Z,24.08
2017-11-06T11:55:48.455Z,24.08
2017-11-06T11:57:56.787Z,24.08
2017-11-06T12:00:06.526Z,24.08
2017-11-06T12:02:12.385Z,24.08
2017-11-06T12:04:18.399Z,24.08
2017-11-06T12:06:24.119Z,24.19
2017-11-06T12:08:30.720Z,24.19
2017-11-06T12:10:36.325Z,24.15
2017-11-06T12:12:42.347Z,24.12
2017-11-06T12:14:49.705Z,24.16
2017-11-06T12:16:58.728Z,24.18
2017-11-06T12:19:11.817Z,24.15
2017-11-06T12:21:19.169Z,24.14
2017-11-06T12:23:25.410Z,24.14
2017-11-06T12:25:32.911Z,24.10
2017-11-06T12:27:41.884Z,24.08
2017-11-06T12:29:48.790Z,24.08
2017-11-06T12:32:00.085Z,24.11
2017-11-06T12:34:05.777Z,24.08
2017-11-06T12:38:36.428Z,24.03
2017-11-06T12:41:10.219Z,24.05
2017-11-06T12:43:35.913Z,24.09
2017-11-06T12:45:56.236Z,24.17
2017-11-06T12:48:07.126Z,24.14
2017-11-06T12:50:14.174Z,24.18
2017-11-06T12:52:20.513Z,24.11
2017-11-06T12:54:27.632Z,24.07
2017-11-06T12:56:38.372Z,24.07
2017-11-06T12:58:44.405Z,24.07
2017-11-06T13:00:54.457Z,24.06
2017-11-06T13:03:11.040Z,24.10
2017-11-06T13:05:16.598Z,24.14
2017-11-06T13:07:22.494Z,24.16
2017-11-06T13:09:29.228Z,24.16
2017-11-06T13:11:35.586Z,24.25
2017-11-06T13:13:41.988Z,24.29
2017-11-06T13:15:48.400Z,24.33
2017-11-06T13:17:55.920Z,24.39
2017-11-06T13:20:03.314Z,24.42
2017-11-06T13:22:35.708Z,24.47
2017-11-06T13:26:42.956Z,24.49
2017-11-06T13:46:49.915Z,24.32
2017-11-06T13:49:11.848Z,24.31
2017-11-06T13:51:22.667Z,24.28
2017-11-06T13:53:30.801Z,24.35
2017-11-06T13:55:37.760Z,24.40
2017-11-06T13:57:44.806Z,24.41
2017-11-06T13:59:55.323Z,24.44
2017-11-06T14:02:06.436Z,24.45
2017-11-06T14:04:14.085Z,24.48
2017-11-06T14:06:36.389Z,24.48
2017-11-06T14:15:10.387Z,24.67
2017-11-06T14:17:16.965Z,24.57
2017-11-06T14:19:23.505Z,24.57
2017-11-06T14:21:30.591Z,24.58
2017-11-06T14:23:37.198Z,24.60
2017-11-06T14:25:43.272Z,24.67
2017-11-06T14:27:49.471Z,24.71
2017-11-06T14:29:56.028Z,24.78
2017-11-06T14:32:07.914Z,24.68
2017-11-06T14:39:46.157Z,24.67
2017-11-06T14:41:53.111Z,24.65
2017-11-06T14:43:59.726Z,24.63
2017-11-06T14:46:10.272Z,24.62
2017-11-06T14:48:19.562Z,24.62
2017-11-06T14:50:30.386Z,24.60
2017-11-06T14:52:40.984Z,24.60
2017-11-06T14:54:49.317Z,24.59
2017-11-06T14:56:57.131Z,24.58
2017-11-06T14:59:14.961Z,24.58
2017-11-06T15:01:26.491Z,24.57
2017-11-06T15:03:38.356Z,24.56
2017-11-06T15:05:47.114Z,24.54
2017-11-06T15:07:56.936Z,24.54
2017-11-06T15:10:15.710Z,24.53
2017-11-06T15:12:25.278Z,24.64
2017-11-06T15:14:33.609Z,24.58
2017-11-06T15:16:40.506Z,24.57
2017-11-06T15:18:47.205Z,24.51
2017-11-06T15:20:54.065Z,24.45
2017-11-06T15:23:08.606Z,24.43
2017-11-06T15:25:15.924Z,24.42
2017-11-06T15:27:21.512Z,24.38
2017-11-06T15:29:29.306Z,24.36
2017-11-06T15:31:35.042Z,24.34
2017-11-06T15:33:41.637Z,24.34
2017-11-06T15:35:49.263Z,24.30
2017-11-06T15:37:58.389Z,24.31
2017-11-06T15:40:08.309Z,24.28
2017-11-06T15:42:14.984Z,24.28
2017-11-06T15:44:21.909Z,24.28
2017-11-06T15:46:28.948Z,24.27
2017-11-06T15:48:35.810Z,24.32
2017-11-06T15:50:42.441Z,24.35
2017-11-06T15:52:52.646Z,24.36
2017-11-06T15:54:59.598Z,24.38
2017-11-06T15:57:09.349Z,24.38
2017-11-06T15:59:18.159Z,24.38
2017-11-06T16:01:25.754Z,24.45
2017-11-06T16:03:31.937Z,24.43
2017-11-06T16:05:41.549Z,24.39
2017-11-06T16:07:48.192Z,24.43
2017-11-06T16:09:56.867Z,24.41
2017-11-06T16:12:03.530Z,24.42
2017-11-06T16:14:12.032Z,24.35
2017-11-06T16:16:22.710Z,24.33
2017-11-06T16:18:29.301Z,24.30
2017-11-06T16:20:45.741Z,24.29
2017-11-06T16:22:56.347Z,24.24
2017-11-06T16:25:04.181Z,24.20
2017-11-06T16:27:24.720Z,24.22
2017-11-06T16:29:31.039Z,24.20
2017-11-06T16:31:37.746Z,24.19
2017-11-06T16:33:43.611Z,24.19
2017-11-06T16:35:49.455Z,24.16
2017-11-06T16:37:58.665Z,24.11
2017-11-06T16:40:11.532Z,24.09
2017-11-06T16:42:19.341Z,24.07
2017-11-06T16:44:29.758Z,24.08
2017-11-06T16:46:35.716Z,24.09
2017-11-06T16:48:42.710Z,24.09
2017-11-06T16:50:50.603Z,24.07
2017-11-06T16:53:00.778Z,24.03
2017-11-06T16:55:11.788Z,24.00
2017-11-06T16:57:18.182Z,24.01
2017-11-06T16:59:24.685Z,24.01
2017-11-06T17:01:31.032Z,23.99
2017-11-06T17:03:41.861Z,24.00
2017-11-06T17:05:48.813Z,23.98
2017-11-06T17:07:56.189Z,23.95
2017-11-06T17:10:04.225Z,23.95
2017-11-06T17:12:11.320Z,23.95
2017-11-06T17:14:17.821Z,23.92
2017-11-06T17:16:26.408Z,23.91
2017-11-06T17:18:34.268Z,23.89
2017-11-06T17:20:43.285Z,23.89
2017-11-06T17:22:49.768Z,23.87
2017-11-06T17:24:57.519Z,23.86
2017-11-06T17:27:09.076Z,23.86
2017-11-06T17:29:19.757Z,23.84
2017-11-06T17:31:25.899Z,23.83
2017-11-06T17:33:35.553Z,23.78
2017-11-06T17:35:42.364Z,23.82
2017-11-06T17:37:51.104Z,23.81
2017-11-06T17:39:57.555Z,23.81
2017-11-06T17:42:09.369Z,23.79
2017-11-06T17:44:17.754Z,23.78
2017-11-06T17:46:25.575Z,23.78
2017-11-06T17:48:32.107Z,23.80
2017-11-06T17:50:40.007Z,23.83
2017-11-06T17:52:48.940Z,23.79
2017-11-06T17:54:56.355Z,23.76
2017-11-06T17:57:05.404Z,23.75
2017-11-06T17:59:15.418Z,23.76
2017-11-06T18:01:21.564Z,23.75
2017-11-06T18:03:29.410Z,23.70
2017-11-06T18:05:35.869Z,23.73
2017-11-06T18:07:44.385Z,23.77
2017-11-06T18:09:51.561Z,23.76
2017-11-06T18:11:57.979Z,23.73
2017-11-06T18:14:04.114Z,23.72
2017-11-06T18:16:11.374Z,23.76
2017-11-06T18:18:20.386Z,23.76
2017-11-06T18:20:30.319Z,23.76
2017-11-06T18:22:36.531Z,23.77
2017-11-06T18:24:43.768Z,23.75
2017-11-06T18:27:09.725Z,23.79
2017-11-06T18:29:20.963Z,23.76
2017-11-06T18:31:27.096Z,23.78
2017-11-06T18:33:35.321Z,23.76
2017-11-06T18:35:41.497Z,23.76
2017-11-06T18:37:54.062Z,23.77
2017-11-06T18:40:06.565Z,23.75
2017-11-06T18:42:15.812Z,23.77
2017-11-06T18:44:23.521Z,23.77
2017-11-06T18:46:30.818Z,23.73
2017-11-06T18:48:39.113Z,23.70
2017-11-06T18:50:47.431Z,23.69
2017-11-06T18:52:58.163Z,23.67
2017-11-06T18:55:12.245Z,23.70
2017-11-06T18:57:24.334Z,23.68
2017-11-06T18:59:32.934Z,23.70
2017-11-06T19:01:42.982Z,23.73
2017-11-06T19:03:52.252Z,23.73
2017-11-06T19:08:21.213Z,23.94
2017-11-06T19:10:27.822Z,23.77
2017-11-06T19:12:36.747Z,23.73
2017-11-06T19:14:43.597Z,23.72
2017-11-06T19:16:49.950Z,23.72
2017-11-06T19:18:59.451Z,23.70
2017-11-06T19:23:23.439Z,23.69
2017-11-06T19:25:31.150Z,23.71
2017-11-06T19:27:40.254Z,23.70
2017-11-06T19:29:48.735Z,23.66
2017-11-06T19:31:59.013Z,23.68
2017-11-06T19:34:09.781Z,23.65
2017-11-06T19:36:18.941Z,23.63
2017-11-06T19:38:25.106Z,23.66
2017-11-06T19:40:32.730Z,23.62
2017-11-06T19:45:08.082Z,23.60
2017-11-06T19:47:15.065Z,23.59
2017-11-06T19:49:23.402Z,23.54
2017-11-06T19:51:31.629Z,23.59
2017-11-06T19:53:41.488Z,23.68
2017-11-06T19:55:50.221Z,23.75
2017-11-06T19:58:00.798Z,23.84
2017-11-06T20:00:17.940Z,23.67
2017-11-06T20:02:25.550Z,23.62
2017-11-06T20:04:34.280Z,23.56
2017-11-06T20:06:41.676Z,23.56
2017-11-06T20:08:50.054Z,23.55
2017-11-06T20:11:00.340Z,23.54
2017-11-06T20:13:11.953Z,23.58
2017-11-06T20:15:19.288Z,23.60
2017-11-06T20:17:26.377Z,23.56
2017-11-06T20:19:36.814Z,23.55
2017-11-06T20:21:54.462Z,23.60
2017-11-06T20:24:03.903Z,23.61
2017-11-06T20:26:14.371Z,23.55
2017-11-06T20:28:24.159Z,23.57
2017-11-06T20:30:38.727Z,23.61
2017-11-06T20:32:48.783Z,23.64
2017-11-06T20:35:11.486Z,23.65
2017-11-06T20:40:20.295Z,23.68
2017-11-06T20:44:59.547Z,23.63
2017-11-06T20:47:24.485Z,23.64
2017-11-06T20:49:43.170Z,23.64
2017-11-06T20:51:54.261Z,23.63
2017-11-06T20:54:01.279Z,23.55
2017-11-06T20:56:19.285Z,23.59
2017-11-06T20:58:27.913Z,23.58
2017-11-06T21:00:36.191Z,23.58
2017-11-06T21:02:43.998Z,23.53
2017-11-06T21:04:53.272Z,23.58
2017-11-06T21:07:02.110Z,23.55
2017-11-06T21:09:11.127Z,23.59
2017-11-06T21:11:19.815Z,23.60
2017-11-06T21:13:26.047Z,23.61
2017-11-06T21:15:33.720Z,23.53
2017-11-06T21:17:43.136Z,23.60
2017-11-06T21:19:51.007Z,23.61
2017-11-06T21:21:58.855Z,23.61
2017-11-06T21:24:11.166Z,23.61
2017-11-06T21:26:18.194Z,23.62
2017-11-06T21:28:26.967Z,23.60
2017-11-06T21:30:37.971Z,23.61
2017-11-06T21:32:45.088Z,23.59
2017-11-06T21:34:52.648Z,23.57
2017-11-06T21:37:00.020Z,23.59
2017-11-06T21:39:08.922Z,23.55
2017-11-06T21:41:23.918Z,23.54
2017-11-06T21:43:31.574Z,23.51
2017-11-06T21:45:42.131Z,23.54
2017-11-06T21:47:49.424Z,23.54
2017-11-06T21:50:15.084Z,23.52
2017-11-06T21:52:23.462Z,23.48
2017-11-06T21:54:30.587Z,23.44
2017-11-06T21:56:36.619Z,23.40
2017-11-06T21:58:48.085Z,23.43
2017-11-06T22:00:58.654Z,23.41
2017-11-06T22:03:05.355Z,23.42
2017-11-06T22:05:11.959Z,23.39
2017-11-06T22:07:21.248Z,23.44
2017-11-06T22:09:28.257Z,23.44
2017-11-06T22:11:35.457Z,23.44
2017-11-06T22:13:42.561Z,23.44
2017-11-06T22:15:49.730Z,23.46
2017-11-06T22:17:57.825Z,23.42
2017-11-06T22:20:17.236Z,23.41
2017-11-06T22:22:25.896Z,23.41
2017-11-06T22:24:32.104Z,23.43
2017-11-06T22:26:38.387Z,23.39
2017-11-06T22:28:44.904Z,23.40
2017-11-06T22:30:53.441Z,23.45
2017-11-06T22:33:02.411Z,23.38
2017-11-06T22:35:12.304Z,23.42
2017-11-06T22:37:19.336Z,23.39
2017-11-06T22:39:27.920Z,23.38
2017-11-06T22:41:34.988Z,23.44
2017-11-06T22:43:46.667Z,23.43
2017-11-06T22:45:55.051Z,23.41
2017-11-06T22:48:06.216Z,23.46
2017-11-06T22:50:35.999Z,23.53
2017-11-06T22:53:50.738Z,23.56
2017-11-06T22:56:07.773Z,23.51
2017-11-06T22:58:23.224Z,23.52
2017-11-06T23:00:33.357Z,23.51
2017-11-06T23:02:53.619Z,23.54
2017-11-06T23:05:27.960Z,23.53
2017-11-06T23:07:49.928Z,23.55
2017-11-06T23:10:08.708Z,23.53
2017-11-06T23:12:21.680Z,23.53
2017-11-06T23:14:38.254Z,23.55
2017-11-06T23:16:48.319Z,23.52
2017-11-06T23:18:56.913Z,23.52
2017-11-06T23:21:08.939Z,23.52
2017-11-06T23:23:17.809Z,23.55
2017-11-06T23:25:26.726Z,23.58
2017-11-06T23:27:35.135Z,23.58
2017-11-06T23:29:46.200Z,23.58
2017-11-06T23:31:57.390Z,23.56
2017-11-06T23:34:09.211Z,23.58
2017-11-06T23:36:20.626Z,23.58
2017-11-06T23:38:43.496Z,23.60
2017-11-06T23:40:53.427Z,23.53
2017-11-06T23:43:03.389Z,23.59
2017-11-06T23:45:14.202Z,23.54
2017-11-06T23:47:25.476Z,23.53
2017-11-06T23:49:34.269Z,23.54
2017-11-06T23:51:43.953Z,23.54
2017-11-06T23:53:54.039Z,23.53
2017-11-06T23:56:07.866Z,23.47
2017-11-06T23:58:17.489Z,23.47
